Time;durP1;ratioP1;P1;durP2;ratioP2;P2;SDS_P1;SDS_P2;PMS_P1;PMS_P2;Temp;Humidity;BMP_temperature;BMP_pressure;BME280_temperature;BME280_humidity;BME280_pressure;Samples;Min_cycle;Max_cycle;Signal;HPM_P1;HPM_P2
2022/01/27 00:00:16;;;;;;;;;61.25;46.00;;;;;4.89;71.54;103128.13;5020154;28;45591;-68
2022/01/27 00:05:20;;;;;;;;;62.00;47.75;;;;;4.92;71.75;103122.63;5026895;28;45713;-67
2022/01/27 00:13:10;;;;;;;;;66.00;47.50;;;;;5.02;72.07;103111.47;5022762;28;45538;-67
2022/01/27 00:15:35;;;;;;;;;63.50;45.75;;;;;5.03;71.53;103115.03;5017312;28;45343;-68
2022/01/27 00:18:07;;;;;;;;;22.25;6.25;;;;;4.96;71.64;103110.81;5018605;28;45930;-67
2022/01/27 00:20:33;;;;;;;;;54.00;42.50;;;;;4.92;72.23;103101.06;5017742;28;45374;-67
2022/01/27 00:22:58;;;;;;;;;60.75;45.00;;;;;5.00;72.00;103107.94;5022807;28;45276;-67
2022/01/27 00:25:24;;;;;;;;;57.25;43.75;;;;;5.00;71.52;103096.28;5018095;28;45588;-66
2022/01/27 00:27:49;;;;;;;;;57.50;46.00;;;;;4.97;71.17;103096.38;5020185;28;45412;-67
2022/01/27 00:30:14;;;;;;;;;55.75;43.75;;;;;4.97;71.60;103096.38;5019711;28;45332;-66
2022/01/27 00:32:40;;;;;;;;;49.75;43.75;;;;;5.04;71.22;103087.16;5021703;28;45557;-67
2022/01/27 00:35:06;;;;;;;;;62.50;44.75;;;;;5.05;71.39;103091.59;5020912;28;45231;-68
2022/01/27 00:37:32;;;;;;;;;64.75;46.00;;;;;5.09;71.12;103090.56;5022156;28;45690;-67
2022/01/27 00:39:58;;;;;;;;;59.50;43.75;;;;;5.02;71.35;103062.09;5020426;28;45532;-66
2022/01/27 00:42:25;;;;;;;;;59.75;45.50;;;;;5.20;70.78;103082.94;5014918;28;45394;-67
2022/01/27 00:44:51;;;;;;;;;61.00;44.50;;;;;5.23;71.05;103080.16;5020922;28;45555;-66
2022/01/27 00:47:16;;;;;;;;;63.50;44.75;;;;;5.22;70.82;103074.81;5017886;28;46920;-67
2022/01/27 00:49:42;;;;;;;;;48.50;40.00;;;;;5.25;70.67;103069.31;5020860;28;45264;-66
2022/01/27 00:52:11;;;;;;;;;59.25;40.25;;;;;5.25;70.71;103063.94;5015748;28;45322;-66
2022/01/27 00:54:37;;;;;;;;;62.25;42.50;;;;;5.25;70.09;103070.22;5021033;28;45545;-66
2022/01/27 00:57:12;;;;;;;;;54.00;42.25;;;;;5.30;70.54;103060.13;5020851;28;45944;-66
2022/01/27 00:59:57;;;;;;;;;60.00;41.75;;;;;5.27;70.27;103056.66;5023783;28;45174;-66
2022/01/27 01:05:00;;;;;;;;;46.50;36.75;;;;;5.06;70.10;103048.44;5024139;28;45396;-66
2022/01/27 01:07:30;;;;;;;;;64.00;46.00;;;;;5.15;70.44;103047.22;5022208;28;45446;-67
2022/01/27 01:13:55;;;;;;;;;45.00;35.25;;;;;5.21;70.16;103046.09;5023682;28;45359;-66
2022/01/27 01:15:30;;;;;;;;;53.25;41.75;;;;;5.24;69.86;103043.31;5019963;28;45494;-66
2022/01/27 01:20:55;;;;;;;;;53.75;37.75;;;;;5.33;69.88;103024.94;5019610;28;45493;-66
2022/01/27 01:34:27;;;;;;;;;51.50;39.75;;;;;5.27;69.37;103018.91;5016663;28;45462;-66
2022/01/27 01:37:01;;;;;;;;;61.00;42.00;;;;;5.30;69.34;103014.31;5015346;28;45576;-66
2022/01/27 01:39:33;;;;;;;;;58.00;46.00;;;;;5.35;69.38;103014.09;5024579;28;46388;-66
2022/01/27 01:42:00;;;;;;;;;50.50;38.25;;;;;5.33;69.49;103018.72;5016792;28;45386;-66
2022/01/27 01:44:26;;;;;;;;;59.00;40.50;;;;;5.25;69.75;103010.91;5024741;28;45393;-67
2022/01/27 01:46:52;;;;;;;;;56.50;45.00;;;;;5.26;69.46;103018.03;5020276;28;45359;-66
2022/01/27 01:49:18;;;;;;;;;49.50;38.25;;;;;5.35;69.43;103014.09;5024955;28;46857;-66
2022/01/27 01:51:44;;;;;;;;;53.25;39.25;;;;;5.36;69.80;103011.34;5018609;28;45319;-67
2022/01/27 01:54:11;;;;;;;;;49.50;38.00;;;;;5.45;69.53;103015.53;5025589;28;45285;-66
2022/01/27 01:56:38;;;;;;;;;47.75;37.25;;;;;5.42;68.94;102994.94;5018833;28;45459;-66
2022/01/27 01:59:05;;;;;;;;;45.75;38.25;;;;;5.46;69.15;102984.94;5024877;28;45462;-66
2022/01/27 02:01:32;;;;;;;;;45.75;37.75;;;;;5.47;69.03;102992.09;5016875;28;45346;-66
2022/01/27 02:04:02;;;;;;;;;51.25;37.50;;;;;5.51;68.89;102992.81;5025091;28;45345;-66
2022/01/27 02:06:34;;;;;;;;;47.00;40.50;;;;;5.55;69.03;102995.34;5018311;28;45513;-66
2022/01/27 02:19:43;;;;;;;;;50.50;37.25;;;;;5.60;69.07;102995.16;5012049;28;45681;-66
2022/01/27 02:22:08;;;;;;;;;48.25;38.25;;;;;5.60;69.05;102996.03;5049647;28;45429;-66
2022/01/27 02:24:36;;;;;;;;;48.75;40.75;;;;;5.58;69.33;102988.94;5015985;28;45875;-66
2022/01/27 02:27:04;;;;;;;;;60.00;44.50;;;;;5.56;69.36;102999.78;5020048;28;45456;-66
2022/01/27 02:29:29;;;;;;;;;56.50;45.75;;;;;5.52;69.52;102991.88;5023257;28;48083;-66
2022/01/27 02:31:59;;;;;;;;;59.25;45.00;;;;;5.46;69.36;102983.13;5022229;28;45356;-66
2022/01/27 02:34:25;;;;;;;;;63.75;48.00;;;;;5.50;69.55;102994.63;5024543;28;45353;-66
2022/01/27 02:36:51;;;;;;;;;63.75;48.25;;;;;5.53;69.65;102988.25;5014473;28;45439;-66
2022/01/27 02:39:17;;;;;;;;;71.25;49.75;;;;;5.53;69.87;102974.78;5024436;28;45494;-66
2022/01/27 02:41:48;;;;;;;;;59.50;44.25;;;;;5.52;70.00;102981.97;5014874;28;45466;-66
2022/01/27 02:44:37;;;;;;;;;68.00;49.00;;;;;5.51;70.00;102982.03;5024379;28;45618;-67
2022/01/27 02:47:03;;;;;;;;;64.75;52.00;;;;;5.52;70.18;102975.72;5033214;28;45398;-66
2022/01/27 02:49:28;;;;;;;;;67.25;49.25;;;;;5.52;70.05;102973.00;5022262;28;45973;-66
2022/01/27 02:51:54;;;;;;;;;64.00;46.50;;;;;5.53;70.23;102975.66;5015286;28;45247;-66
2022/01/27 02:54:19;;;;;;;;;68.00;47.00;;;;;5.49;70.21;102965.91;5024422;28;45221;-66
2022/01/27 02:56:47;;;;;;;;;69.00;50.75;;;;;5.52;70.10;102975.72;5017915;28;45905;-67
2022/01/27 02:59:17;;;;;;;;;61.75;47.50;;;;;5.48;70.06;102975.81;5024034;28;45347;-66
2022/01/27 03:01:49;;;;;;;;;67.75;46.50;;;;;5.51;70.54;102968.56;5017382;28;45426;-67
2022/01/27 03:04:15;;;;;;;;;62.75;46.75;;;;;5.53;70.05;102958.59;5023259;28;45417;-66
2022/01/27 03:06:42;;;;;;;;;72.25;51.50;;;;;5.54;70.39;102963.94;5017574;28;45388;-67
2022/01/27 03:09:07;;;;;;;;;66.50;49.25;;;;;5.53;70.03;102961.28;5023733;28;47335;-67
2022/01/27 03:11:47;;;;;;;;;59.75;44.50;;;;;5.54;70.58;102957.66;5017101;28;45424;-66
2022/01/27 03:14:15;;;;;;;;;67.50;48.00;;;;;5.51;70.68;102952.38;5019798;28;45249;-66
2022/01/27 03:16:41;;;;;;;;;52.25;35.50;;;;;5.53;70.67;102955.91;5017749;28;45752;-66
2022/01/27 03:19:07;;;;;;;;;62.25;51.25;;;;;5.51;70.44;102955.97;5020288;28;45450;-66
2022/01/27 03:21:32;;;;;;;;;63.75;47.75;;;;;5.55;70.33;102956.72;5019018;28;45256;-66
2022/01/27 03:23:58;;;;;;;;;62.00;49.25;;;;;5.49;70.39;102955.13;5021153;28;45543;-66
2022/01/27 03:26:24;;;;;;;;;58.50;45.75;;;;;5.52;70.22;102956.84;5020784;28;45418;-66
2022/01/27 03:28:50;;;;;;;;;65.75;48.75;;;;;5.52;70.18;102955.03;5022013;28;45481;-66
2022/01/27 03:31:15;;;;;;;;;68.50;47.75;;;;;5.54;70.48;102960.34;5012889;28;45682;-67
2022/01/27 03:33:41;;;;;;;;;60.50;47.75;;;;;5.51;70.26;102952.38;5016879;28;45350;-67
2022/01/27 03:36:07;;;;;;;;;58.75;51.00;;;;;5.51;70.50;102946.97;5009481;28;45515;-66
2022/01/27 03:38:33;;;;;;;;;39.50;36.50;;;;;5.38;70.68;102963.66;5020808;28;45296;-66
2022/01/27 03:40:59;;;;;;;;;68.50;49.00;;;;;5.28;71.00;102954.19;5017501;28;45161;-66
2022/01/27 03:43:24;;;;;;;;;72.50;54.00;;;;;5.27;71.04;102962.31;5036050;28;45349;-66
2022/01/27 03:45:50;;;;;;;;;63.75;49.75;;;;;5.26;70.85;102955.19;5033467;28;45508;-66
2022/01/27 03:48:15;;;;;;;;;51.00;40.00;;;;;5.29;70.79;102958.63;5018554;28;46967;-66
2022/01/27 03:50:40;;;;;;;;;68.25;49.00;;;;;5.17;71.09;102959.13;5010450;28;45454;-66
2022/01/27 03:53:06;;;;;;;;;72.75;47.25;;;;;5.21;71.25;102954.47;5021653;28;45547;-66
2022/01/27 03:55:31;;;;;;;;;60.25;46.75;;;;;5.26;71.56;102947.97;5017369;28;45498;-67
2022/01/27 03:57:56;;;;;;;;;61.25;46.00;;;;;5.28;71.10;102938.00;5022747;28;45971;-66
2022/01/27 04:00:22;;;;;;;;;73.75;50.25;;;;;5.31;71.28;102943.28;5033006;28;45604;-66
2022/01/27 04:02:57;;;;;;;;;69.25;49.00;;;;;5.34;71.00;102951.22;5021042;28;45423;-66
2022/01/27 04:05:23;;;;;;;;;67.00;45.75;;;;;5.36;71.16;102949.34;5016392;28;45393;-66
2022/01/27 04:07:50;;;;;;;;;68.00;50.25;;;;;5.33;70.95;102941.38;5021890;28;45421;-66
2022/01/27 04:10:15;;;;;;;;;61.50;47.25;;;;;5.39;70.76;102948.38;5018379;28;45260;-65
2022/01/27 04:12:40;;;;;;;;;61.25;46.50;;;;;5.43;70.76;102950.88;5020685;28;45641;-67
2022/01/27 04:15:06;;;;;;;;;71.50;50.75;;;;;5.38;70.85;102936.72;5020067;28;45167;-67
2022/01/27 04:17:32;;;;;;;;;64.00;49.25;;;;;5.33;71.12;102944.06;5015965;28;46905;-67
2022/01/27 04:19:57;;;;;;;;;62.00;45.00;;;;;5.28;71.17;102946.09;5020918;28;45311;-67
2022/01/27 04:22:22;;;;;;;;;72.50;50.25;;;;;5.17;71.60;102932.19;5016668;28;45730;-67
2022/01/27 04:24:48;;;;;;;;;72.50;49.75;;;;;5.28;71.59;102946.09;5019559;28;45622;-67
2022/01/27 04:27:19;;;;;;;;;72.50;48.75;;;;;5.33;71.40;102944.06;5020055;28;46534;-67
2022/01/27 04:29:45;;;;;;;;;60.25;48.00;;;;;5.40;71.39;102939.34;5022824;28;45241;-66
2022/01/27 04:32:12;;;;;;;;;69.50;47.25;;;;;5.45;71.09;102949.00;5028557;28;45427;-66
2022/01/27 04:34:40;;;;;;;;;68.75;47.75;;;;;5.42;71.06;102951.81;5028086;28;46326;-66
2022/01/27 04:37:07;;;;;;;;;65.00;51.00;;;;;5.44;71.01;102957.13;5024443;28;46014;-67
2022/01/27 04:40:00;;;;;;;;;66.50;45.00;;;;;5.42;70.69;102959.91;5027361;28;45400;-67
2022/01/27 04:42:36;;;;;;;;;61.00;45.00;;;;;5.44;70.99;102954.44;5019920;28;45420;-67
2022/01/27 04:45:04;;;;;;;;;57.50;43.50;;;;;5.44;71.17;102949.94;5026855;28;45505;-67
2022/01/27 04:47:37;;;;;;;;;66.00;50.00;;;;;5.46;71.25;102956.16;5024031;28;45563;-66
2022/01/27 04:50:03;;;;;;;;;64.75;49.75;;;;;5.42;70.90;102943.72;5023111;28;45520;-67
2022/01/27 04:52:31;;;;;;;;;62.50;43.25;;;;;5.45;71.14;102937.34;5023332;28;45523;-67
2022/01/27 04:55:07;;;;;;;;;67.25;48.75;;;;;5.45;71.14;102938.22;5040413;28;45366;-66
2022/01/27 04:57:33;;;;;;;;;67.75;49.25;;;;;5.35;71.51;102936.81;5021996;28;47130;-69
2022/01/27 04:59:58;;;;;;;;;70.75;51.00;;;;;5.39;71.35;102937.59;5024545;28;45406;-67
2022/01/27 05:02:47;;;;;;;;;62.75;46.00;;;;;5.42;71.18;102937.44;5022755;28;45628;-67
2022/01/27 05:05:13;;;;;;;;;53.75;41.00;;;;;5.43;71.12;102939.22;5025451;28;45349;-67
2022/01/27 05:07:39;;;;;;;;;51.75;43.00;;;;;5.43;71.03;102934.69;5026151;28;45469;-67
2022/01/27 05:10:12;;;;;;;;;70.50;53.75;;;;;5.39;71.50;102933.06;5041354;28;45920;-66
2022/01/27 05:12:47;;;;;;;;;63.50;49.25;;;;;5.35;71.35;102935.94;5024584;28;45407;-66
2022/01/27 05:15:13;;;;;;;;;61.50;42.50;;;;;5.39;71.16;102933.06;5023821;28;45482;-66
2022/01/27 05:17:38;;;;;;;;;68.50;49.75;;;;;5.34;71.09;102934.19;5022229;28;45405;-66
2022/01/27 05:20:05;;;;;;;;;66.25;49.75;;;;;5.35;71.45;102928.72;5025937;28;45474;-67
2022/01/27 05:22:31;;;;;;;;;59.75;46.25;;;;;5.29;71.68;102926.28;5023029;28;45505;-66
2022/01/27 05:24:57;;;;;;;;;59.75;49.25;;;;;5.31;71.51;102924.41;5027091;28;45552;-66
2022/01/27 05:27:23;;;;;;;;;55.50;42.75;;;;;5.32;71.78;102920.78;5027427;28;45352;-66
2022/01/27 05:29:48;;;;;;;;;63.75;48.00;;;;;5.32;71.49;102919.91;5026247;28;45235;-66
2022/01/27 05:32:13;;;;;;;;;64.25;50.00;;;;;5.36;71.60;102925.09;5019722;28;45410;-66
2022/01/27 05:34:39;;;;;;;;;66.25;47.25;;;;;5.31;71.36;102927.13;5027522;28;45395;-66
2022/01/27 05:37:04;;;;;;;;;59.25;46.50;;;;;5.33;70.99;102933.31;5019685;28;46006;-66
2022/01/27 05:39:29;;;;;;;;;60.25;45.75;;;;;5.33;71.34;102922.50;5027948;28;45386;-66
2022/01/27 05:41:55;;;;;;;;;71.50;50.75;;;;;5.19;71.62;102929.44;5017825;28;45448;-65
2022/01/27 05:44:20;;;;;;;;;65.50;48.75;;;;;5.24;71.58;102922.91;5025376;28;45492;-66
2022/01/27 05:46:45;;;;;;;;;65.25;50.00;;;;;5.31;71.51;102932.50;5016189;28;46279;-66
2022/01/27 05:49:11;;;;;;;;;45.50;40.75;;;;;5.26;71.44;102921.00;5025175;28;45414;-66
2022/01/27 05:51:36;;;;;;;;;66.50;49.25;;;;;5.25;71.71;102918.41;5018455;28;45256;-66
2022/01/27 05:54:02;;;;;;;;;64.75;49.00;;;;;5.28;71.27;102918.25;5025446;28;45436;-66
2022/01/27 05:56:27;;;;;;;;;64.00;51.75;;;;;5.05;72.03;102916.47;5017983;28;45402;-66
2022/01/27 05:58:52;;;;;;;;;63.50;47.75;;;;;4.85;73.25;102924.44;5024628;28;45350;-67
2022/01/27 06:01:18;;;;;;;;;57.50;43.75;;;;;4.88;72.94;102918.97;5018389;28;45320;-67
2022/01/27 06:03:43;;;;;;;;;57.75;41.00;;;;;4.90;72.88;102919.75;5024939;28;45346;-66
2022/01/27 06:06:09;;;;;;;;;65.25;49.50;;;;;5.05;72.80;102921.88;5017974;28;45512;-67
2022/01/27 06:08:34;;;;;;;;;72.25;52.50;;;;;5.10;72.61;102933.34;5023327;28;45363;-65
2022/01/27 06:11:00;;;;;;;;;69.50;51.75;;;;;5.10;72.49;102930.66;5018004;28;45335;-66
2022/01/27 06:13:26;;;;;;;;;66.25;50.00;;;;;5.15;72.46;102928.66;5020153;28;45224;-66
2022/01/27 06:15:52;;;;;;;;;63.25;48.00;;;;;5.14;72.21;102939.50;5018578;28;45392;-65
2022/01/27 06:18:17;;;;;;;;;71.25;50.50;;;;;5.03;72.16;102946.19;5020961;28;45273;-66
2022/01/27 06:20:44;;;;;;;;;52.50;42.50;;;;;5.05;72.44;102944.28;5019759;28;47953;-66
2022/01/27 06:23:11;;;;;;;;;53.50;39.50;;;;;5.08;72.73;102948.69;5020907;28;45503;-66
2022/01/27 06:25:37;;;;;;;;;61.75;42.25;;;;;5.01;72.79;102936.41;5012610;28;45518;-67
2022/01/27 06:28:03;;;;;;;;;62.50;48.50;;;;;5.06;72.52;102940.66;5022102;28;45402;-65
2022/01/27 06:30:28;;;;;;;;;65.75;45.50;;;;;5.06;72.61;102950.56;5021847;28;45560;-66
2022/01/27 06:32:53;;;;;;;;;63.50;43.50;;;;;5.04;72.80;102942.53;5015402;28;45323;-65
2022/01/27 06:35:19;;;;;;;;;68.00;46.75;;;;;5.11;72.69;102942.31;5021699;28;46226;-67
2022/01/27 06:37:47;;;;;;;;;61.00;45.50;;;;;5.23;72.36;102941.81;5015774;28;45471;-67
2022/01/27 06:40:14;;;;;;;;;66.00;48.25;;;;;5.18;72.22;102944.72;5021926;28;45140;-67
2022/01/27 06:42:40;;;;;;;;;51.00;35.75;;;;;4.95;72.83;102958.19;5017203;28;45367;-66
2022/01/27 06:45:06;;;;;;;;;57.50;43.00;;;;;4.85;73.55;102956.78;5021793;28;45578;-67
2022/01/27 06:47:31;;;;;;;;;62.50;45.00;;;;;4.74;73.28;102940.16;5019939;28;45233;-67
2022/01/27 06:49:57;;;;;;;;;52.00;42.00;;;;;4.89;73.49;102959.31;5019178;28;45383;-67
2022/01/27 06:52:26;;;;;;;;;64.25;45.00;;;;;5.07;73.26;102939.72;5018430;28;45465;-67
2022/01/27 06:54:52;;;;;;;;;62.25;47.00;;;;;5.14;73.11;102948.44;5019398;28;47238;-67
2022/01/27 06:57:17;;;;;;;;;60.00;44.00;;;;;5.06;72.85;102956.84;5017164;28;45840;-67
2022/01/27 06:59:43;;;;;;;;;59.50;44.25;;;;;5.11;72.90;102956.69;5018904;28;45268;-67
2022/01/27 07:02:08;;;;;;;;;57.25;44.25;;;;;5.23;72.96;102953.50;5017559;28;45547;-67
2022/01/27 07:04:34;;;;;;;;;60.00;45.00;;;;;5.30;72.43;102951.44;5021871;28;45384;-68
2022/01/27 07:06:59;;;;;;;;;58.00;42.00;;;;;5.30;72.12;102946.91;5017150;28;45414;-67
2022/01/27 07:09:25;;;;;;;;;59.67;41.33;;;;;5.34;72.27;102945.84;5021401;28;45406;-67
2022/01/27 07:11:50;;;;;;;;;49.25;42.00;;;;;5.33;71.88;102943.22;5018320;28;45311;-66
2022/01/27 07:14:15;;;;;;;;;59.00;44.00;;;;;5.25;72.14;102946.22;5018082;28;46212;-66
2022/01/27 07:16:42;;;;;;;;;48.25;41.25;;;;;5.21;71.92;102949.09;5018477;28;45363;-65
2022/01/27 07:19:08;;;;;;;;;49.50;42.50;;;;;5.22;72.19;102950.84;5019346;28;45386;-66
2022/01/27 07:21:33;;;;;;;;;48.75;41.25;;;;;5.22;72.48;102946.34;5017215;28;45577;-66
2022/01/27 07:23:58;;;;;;;;;61.00;45.25;;;;;5.29;72.20;102953.25;5018707;28;45410;-68
2022/01/27 07:26:27;;;;;;;;;59.75;45.75;;;;;5.21;72.34;102949.97;5019024;28;45238;-66
2022/01/27 07:28:53;;;;;;;;;43.75;38.00;;;;;5.29;72.25;102958.63;5020606;28;45303;-66
2022/01/27 07:31:19;;;;;;;;;68.25;46.25;;;;;5.30;72.21;102960.41;5014432;28;45403;-66
2022/01/27 07:33:47;;;;;;;;;55.75;41.00;;;;;5.34;71.89;102945.84;5019789;28;45365;-67
2022/01/27 07:36:13;;;;;;;;;62.25;44.75;;;;;5.37;71.75;102945.72;5013793;28;45374;-68
2022/01/27 07:38:38;;;;;;;;;60.25;45.50;;;;;5.40;71.58;102945.63;5019495;28;45359;-67
2022/01/27 07:41:03;;;;;;;;;62.00;46.25;;;;;5.48;71.25;102947.97;5015264;28;45505;-69
2022/01/27 07:43:29;;;;;;;;;59.75;46.25;;;;;5.38;71.81;102936.72;5021384;28;46251;-66
2022/01/27 07:45:54;;;;;;;;;59.00;43.00;;;;;5.48;71.51;102954.25;5016020;28;45243;-67
2022/01/27 07:48:20;;;;;;;;;57.75;39.75;;;;;5.35;71.30;102942.22;5019654;28;45224;-67
2022/01/27 07:50:45;;;;;;;;;53.75;44.50;;;;;5.46;71.81;102948.06;5016561;28;45407;-67
2022/01/27 07:53:10;;;;;;;;;59.25;42.50;;;;;5.52;71.53;102948.75;5020745;28;45610;-65
2022/01/27 07:55:36;;;;;;;;;61.25;42.25;;;;;5.58;71.63;102951.19;5015951;28;45397;-66
2022/01/27 07:58:01;;;;;;;;;50.25;42.00;;;;;5.62;71.46;102960.94;5021736;28;45347;-66
2022/01/27 08:00:27;;;;;;;;;63.50;47.25;;;;;5.51;71.51;102947.88;5017296;28;45387;-65
2022/01/27 08:02:52;;;;;;;;;53.50;39.00;;;;;5.49;71.69;102956.00;5021130;28;46677;-68
2022/01/27 08:05:18;;;;;;;;;57.75;45.25;;;;;5.60;71.36;102952.88;5017569;28;45354;-66
2022/01/27 08:07:43;;;;;;;;;63.50;44.25;;;;;5.62;71.06;102955.53;5019918;28;45457;-66
2022/01/27 08:10:09;;;;;;;;;52.00;41.25;;;;;5.62;70.73;102953.72;5019806;28;45398;-66
2022/01/27 08:12:43;;;;;;;;;62.75;44.50;;;;;5.63;71.49;102952.75;5014540;28;46562;-67
2022/01/27 08:15:11;;;;;;;;;53.50;38.00;;;;;5.69;71.27;102957.91;5019459;28;45401;-65
2022/01/27 08:17:38;;;;;;;;;53.00;44.25;;;;;5.73;71.01;102958.66;5045982;28;45322;-65
2022/01/27 08:20:04;;;;;;;;;57.00;46.00;;;;;5.72;71.00;102957.78;5018739;28;45430;-66
2022/01/27 08:22:29;;;;;;;;;54.00;41.50;;;;;5.79;71.21;102953.00;5017950;28;46691;-65
2022/01/27 08:24:55;;;;;;;;;63.25;44.75;;;;;5.78;70.60;102945.84;5020194;28;45223;-65
2022/01/27 08:27:25;;;;;;;;;66.75;47.25;;;;;5.88;70.68;102971.53;5020498;28;45163;-65
2022/01/27 08:29:56;;;;;;;;;59.75;45.25;;;;;5.90;70.75;102968.78;5012982;28;47767;-66
2022/01/27 08:32:30;;;;;;;;;64.50;43.75;;;;;5.93;71.12;102972.22;5011832;28;47263;-66
2022/01/27 08:34:56;;;;;;;;;60.75;42.25;;;;;6.00;70.26;102971.00;5019904;28;45181;-66
2022/01/27 08:37:21;;;;;;;;;59.25;43.25;;;;;6.07;70.64;102969.81;5012944;28;45373;-66
2022/01/27 08:39:48;;;;;;;;;53.75;42.25;;;;;6.18;70.54;102972.06;5021183;28;45470;-66
2022/01/27 08:42:14;;;;;;;;;59.00;41.50;;;;;6.22;70.13;102963.75;5017719;28;45423;-66
2022/01/27 08:44:40;;;;;;;;;54.25;42.50;;;;;6.17;69.63;102957.69;5020977;28;45448;-66
2022/01/27 08:47:07;;;;;;;;;63.50;47.50;;;;;6.16;69.52;102961.31;5014516;28;45400;-66
2022/01/27 08:49:34;;;;;;;;;59.75;43.25;;;;;6.18;69.90;102959.44;5021899;28;45485;-65
2022/01/27 08:52:02;;;;;;;;;59.50;40.75;;;;;6.24;69.67;102959.16;5016214;28;45836;-65
2022/01/27 08:54:27;;;;;;;;;48.25;38.25;;;;;6.32;69.98;102957.97;5021966;28;45332;-66
2022/01/27 08:56:53;;;;;;;;;61.25;45.00;;;;;6.35;69.39;102958.72;5015485;28;45249;-66
2022/01/27 08:59:18;;;;;;;;;46.50;40.75;;;;;6.41;69.17;102965.66;5022526;28;45257;-66
2022/01/27 09:01:44;;;;;;;;;52.50;42.25;;;;;6.49;69.28;102967.09;5028016;28;47071;-66
2022/01/27 09:04:10;;;;;;;;;56.00;40.50;;;;;6.52;69.36;102955.25;5021930;28;45362;-65
2022/01/27 09:06:36;;;;;;;;;60.25;43.75;;;;;6.55;68.75;102945.19;5015655;28;45442;-66
2022/01/27 09:09:03;;;;;;;;;56.50;41.50;;;;;6.59;68.83;102951.31;5022403;28;45345;-66
2022/01/27 09:11:30;;;;;;;;;58.00;43.50;;;;;6.59;68.25;102948.63;5015867;28;46111;-66
2022/01/27 09:13:59;;;;;;;;;62.75;43.50;;;;;6.54;68.83;102939.84;5017272;28;45244;-66
2022/01/27 09:16:27;;;;;;;;;60.00;44.00;;;;;6.63;68.86;102939.44;5017849;28;45418;-66
2022/01/27 09:18:54;;;;;;;;;58.00;46.00;;;;;6.67;68.13;102935.66;5021084;28;45527;-66
2022/01/27 09:21:24;;;;;;;;;57.75;42.25;;;;;6.70;68.17;102930.13;5021560;28;45509;-66
2022/01/27 09:23:51;;;;;;;;;57.50;41.00;;;;;6.76;68.07;102932.53;5022997;28;45476;-66
2022/01/27 09:27:17;;;;;;;;;62.75;43.50;;;;;6.79;67.84;102931.53;5020934;28;45480;-66
2022/01/27 09:29:11;;;;;;;;;59.00;40.00;;;;;6.81;67.63;102930.47;5014963;28;45346;-66
2022/01/27 09:31:37;;;;;;;;;65.00;45.00;;;;;6.85;67.75;102937.53;5014584;28;45379;-65
2022/01/27 09:34:02;;;;;;;;;52.75;37.75;;;;;6.83;67.06;102942.09;5040216;28;45273;-65
2022/01/27 09:36:27;;;;;;;;;57.75;44.50;;;;;6.74;67.54;102929.03;5015867;28;45518;-65
2022/01/27 09:38:53;;;;;;;;;57.00;44.25;;;;;6.59;68.36;102935.13;5025598;28;45385;-65
2022/01/27 09:41:22;;;;;;;;;47.50;35.50;;;;;6.45;68.79;102951.06;5018954;28;46420;-65
2022/01/27 09:43:49;;;;;;;;;61.50;45.00;;;;;6.48;68.96;102949.13;5022446;28;45271;-66
2022/01/27 09:46:18;;;;;;;;;61.25;45.75;;;;;6.61;68.39;102941.34;5033686;28;45474;-66
2022/01/27 09:48:47;;;;;;;;;60.50;45.00;;;;;6.77;68.26;102938.81;5023961;28;45452;-66
2022/01/27 09:53:44;;;;;;;;;57.25;41.75;;;;;6.83;67.50;102944.81;5024533;28;45331;-67
2022/01/27 09:56:10;;;;;;;;;57.00;41.75;;;;;6.89;68.18;102928.31;5033354;28;45325;-67
2022/01/27 09:58:35;;;;;;;;;47.00;38.00;;;;;6.92;67.10;102928.19;5025086;28;45345;-66
2022/01/27 10:01:01;;;;;;;;;58.25;43.25;;;;;6.89;67.60;102922.91;5018691;28;46863;-66
2022/01/27 10:03:28;;;;;;;;;61.25;45.00;;;;;7.04;67.70;102927.59;5024617;28;45295;-66
2022/01/27 10:06:09;;;;;;;;;59.00;43.25;;;;;7.27;67.40;102914.81;5018038;28;45525;-66
2022/01/27 10:08:35;;;;;;;;;57.25;43.00;;;;;7.39;66.39;102927.72;5025179;28;45497;-67
2022/01/27 10:11:17;;;;;;;;;56.00;44.00;;;;;7.42;66.65;102914.06;5018270;28;45572;-66
2022/01/27 10:13:44;;;;;;;;;47.00;39.00;;;;;7.45;66.32;102924.75;5020191;28;45481;-65
2022/01/27 10:16:29;;;;;;;;;62.75;43.00;;;;;7.10;67.29;102926.41;5018148;28;45418;-65
2022/01/27 10:19:09;;;;;;;;;39.25;30.00;;;;;7.15;67.14;102937.03;5020431;28;45347;-66
2022/01/27 10:21:36;;;;;;;;;59.25;44.00;;;;;7.07;67.27;102936.50;5018886;28;48486;-66
2022/01/27 10:24:26;;;;;;;;;52.75;41.50;;;;;7.18;68.16;102926.06;5022495;28;45279;-66
2022/01/27 10:27:24;;;;;;;;;55.75;39.75;;;;;7.35;66.75;102934.22;5021601;28;45422;-66
2022/01/27 10:32:39;;;;;;;;;54.00;40.25;;;;;7.48;66.60;102934.50;5015459;28;45223;-65
2022/01/27 10:35:05;;;;;;;;;39.25;32.75;;;;;7.43;66.60;102927.50;5021727;28;45548;-65
2022/01/27 10:37:59;;;;;;;;;51.25;40.25;;;;;7.49;66.47;102925.44;5019412;28;45228;-65
2022/01/27 10:40:27;;;;;;;;;51.00;39.50;;;;;7.51;66.45;102923.56;5019829;28;45368;-66
2022/01/27 10:43:03;;;;;;;;;54.00;42.25;;;;;7.50;66.52;102919.97;5017893;28;45516;-65
2022/01/27 10:45:29;;;;;;;;;58.00;43.25;;;;;7.69;66.30;102914.50;5023662;28;45287;-66
2022/01/27 10:48:11;;;;;;;;;52.25;37.25;;;;;7.80;65.89;102922.97;5019272;28;45438;-66
2022/01/27 10:50:50;;;;;;;;;52.50;40.75;;;;;7.79;65.68;102924.78;5016754;28;46204;-65
2022/01/27 10:53:18;;;;;;;;;48.00;36.00;;;;;7.74;64.98;102926.84;5038536;28;47959;-66
2022/01/27 10:55:44;;;;;;;;;46.25;37.00;;;;;7.64;65.47;102919.28;5017214;28;45384;-65
2022/01/27 10:58:27;;;;;;;;;50.75;37.25;;;;;7.64;66.40;102919.28;5017573;28;45479;-66
2022/01/27 11:00:58;;;;;;;;;53.50;41.25;;;;;7.86;65.43;102922.66;5012271;28;45579;-66
2022/01/27 11:03:24;;;;;;;;;55.75;40.25;;;;;7.81;65.60;102930.13;5022159;28;47196;-66
2022/01/27 11:05:50;;;;;;;;;45.50;36.75;;;;;7.70;65.55;102927.97;5031883;28;46000;-65
2022/01/27 11:08:19;;;;;;;;;52.75;39.75;;;;;7.85;65.66;102926.31;5018895;28;45428;-66
2022/01/27 11:10:48;;;;;;;;;54.50;39.75;;;;;7.93;65.63;102931.34;5018119;28;45310;-65
2022/01/27 11:13:15;;;;;;;;;56.25;41.00;;;;;7.98;65.65;102927.44;5015074;28;46440;-66
2022/01/27 11:15:42;;;;;;;;;41.50;35.50;;;;;7.86;65.29;102929.91;5015091;28;45376;-66
2022/01/27 11:18:12;;;;;;;;;59.00;44.75;;;;;7.83;65.30;102917.38;5021313;28;45536;-66
2022/01/27 11:21:01;;;;;;;;;51.50;39.00;;;;;8.00;65.48;102924.66;5020827;28;45552;-66
2022/01/27 11:26:02;;;;;;;;;44.75;37.75;;;;;7.88;65.40;102931.59;5013104;28;45392;-66
2022/01/27 11:28:29;;;;;;;;;52.00;40.00;;;;;7.74;65.63;102924.13;5021242;28;45434;-66
2022/01/27 11:31:09;;;;;;;;;47.50;42.25;;;;;7.86;66.06;102910.94;5018321;28;45477;-66
2022/01/27 11:33:36;;;;;;;;;53.50;36.25;;;;;7.97;65.17;102920.25;5018991;28;45391;-66
2022/01/27 11:36:14;;;;;;;;;59.00;43.00;;;;;7.90;65.32;102905.28;5017338;28;45434;-66
2022/01/27 11:38:42;;;;;;;;;44.75;38.00;;;;;8.09;65.57;102902.53;5020084;28;45279;-66
2022/01/27 11:41:33;;;;;;;;;53.25;38.75;;;;;8.23;64.94;102899.97;5017440;28;45442;-66
2022/01/27 11:44:28;;;;;;;;;50.75;37.75;;;;;8.20;64.94;102892.00;5011687;28;45408;-66
2022/01/27 11:47:20;;;;;;;;;45.50;37.00;;;;;8.23;65.08;102882.84;5016222;28;45344;-66
2022/01/27 11:50:30;;;;;;;;;58.25;44.00;;;;;8.29;64.60;102877.97;5020357;28;45572;-65
2022/01/27 11:52:50;;;;;;;;;55.25;41.50;;;;;8.35;64.24;102882.22;5019926;28;45338;-67
2022/01/27 11:55:24;;;;;;;;;59.25;40.50;;;;;8.38;64.30;102882.94;5007152;28;45547;-65
2022/01/27 11:57:54;;;;;;;;;47.50;38.00;;;;;8.37;64.50;102881.19;5020494;28;45461;-66
2022/01/27 12:00:22;;;;;;;;;56.25;39.00;;;;;8.38;64.50;102882.94;5018816;28;45422;-66
2022/01/27 12:02:56;;;;;;;;;29.50;29.00;;;;;8.22;64.86;102879.25;5020765;28;45396;-65
2022/01/27 12:05:27;;;;;;;;;56.25;42.25;;;;;8.20;64.88;102873.91;5018358;28;45220;-65
2022/01/27 12:08:15;;;;;;;;;52.25;39.75;;;;;8.39;64.68;102867.56;5016596;28;45733;-65